KMWL/MWL METAR and TAF weather

Enter ICAO airport designator
Station Type Date Time Source
KMWL METAR 2019/02/21 10:53 UTC NOAA

KMWL 211053Z AUTO 14007KT 10SM CLR 06/02 A2995 RMK AO2 SLP138 T00560017


Station Type Date Time Source
KMWL Decoded METAR 2019/02/21 10:53 UTC NOAA

MINERAL WELLS AIRPORT, TX, United States (KMWL) 32-47N 098-04W 284M
Feb 21, 2019 - 05:53 AM EST / 2019.02.21 1053 UTC
Wind: from the SE (140 degrees) at 8 MPH (7 KT):0
Visibility: 10 mile(s):0
Sky conditions: clear
Temperature: 42.1 F (5.6 C)
Dew Point: 35.1 F (1.7 C)
Relative Humidity: 75%
Pressure (altimeter): 29.95 in. Hg (1014 hPa)
ob: KMWL 211053Z AUTO 14007KT 10SM CLR 06/02 A2995 RMK AO2 SLP138 T00560017
cycle: 11

Station Type Date Time Source
KMWL TAF UTC NOAA

Error!


Example: see airport list